Time;durP1;ratioP1;P1;durP2;ratioP2;P2;SDS_P1;SDS_P2;PMS_P1;PMS_P2;Temp;Humidity;BMP_temperature;BMP_pressure;BME280_temperature;BME280_humidity;BME280_pressure;Samples;Min_cycle;Max_cycle;Signal;HPM_P1;HPM_P2
2023/12/07 05:16:06;;;;;;;3.07;1.80;;;;;;;;;;20765851;28;20274;-89
2023/12/07 05:26:08;;;;;;;3.20;2.03;;;;;;;;;;20694248;28;20227;-89
2023/12/07 05:36:13;;;;;;;2.77;2.00;;;;;;;;;;20717919;28;20282;-90
2023/12/07 05:46:18;;;;;;;2.70;1.70;;;;;;;;;;20723860;28;20277;-89
2023/12/07 05:56:20;;;;;;;2.60;1.83;;;;;;;;;;20732541;28;20618;-89
2023/12/07 06:06:22;;;;;;;3.13;1.77;;;;;;;;;;20699670;28;20215;-89
2023/12/07 06:16:24;;;;;;;2.43;1.70;;;;;;;;;;20739297;28;20304;-89
2023/12/07 06:26:26;;;;;;;4.47;2.20;;;;;;;;;;20738029;28;20280;-88
2023/12/07 06:36:28;;;;;;;3.03;1.60;;;;;;;;;;20713817;28;20270;-88
2023/12/07 06:46:29;;;;;;;5.03;2.43;;;;;;;;;;20743028;28;20293;-88
2023/12/07 06:56:32;;;;;;;6.87;2.77;;;;;;;;;;20745353;28;20200;-88
2023/12/07 07:06:33;;;;;;;5.77;2.53;;;;;;;;;;20714716;28;20224;-88
2023/12/07 07:16:35;;;;;;;3.80;2.60;;;;;;;;;;20729397;28;20204;-89
2023/12/07 07:26:37;;;;;;;6.97;2.73;;;;;;;;;;20742901;28;20230;-88
2023/12/07 07:46:52;;;;;;;4.37;2.90;;;;;;;;;;21024325;27;1302112;-71
2023/12/07 07:56:55;;;;;;;4.83;3.10;;;;;;;;;;20992753;28;20220;-71
2023/12/07 08:06:57;;;;;;;4.60;3.30;;;;;;;;;;20988061;28;20213;-71
2023/12/07 08:16:59;;;;;;;4.53;2.90;;;;;;;;;;20965158;28;20205;-71
2023/12/07 08:27:01;;;;;;;3.13;2.43;;;;;;;;;;20979124;28;20243;-71
2023/12/07 08:37:05;;;;;;;6.30;3.03;;;;;;;;;;20984850;28;20216;-72
2023/12/07 08:47:07;;;;;;;6.83;4.27;;;;;;;;;;20972539;28;20233;-71
2023/12/07 08:57:09;;;;;;;4.37;2.90;;;;;;;;;;20930873;28;20628;-71
2023/12/07 09:07:15;;;;;;;3.57;2.57;;;;;;;;;;20916609;28;20746;-70
2023/12/07 09:17:18;;;;;;;8.93;3.87;;;;;;;;;;20918269;28;20214;-69
2023/12/07 09:27:20;;;;;;;8.77;4.03;;;;;;;;;;20887332;28;20213;-69
2023/12/07 09:37:21;;;;;;;4.50;2.63;;;;;;;;;;20910265;28;20295;-69
2023/12/07 09:47:23;;;;;;;8.23;2.87;;;;;;;;;;20907486;28;20766;-69
2023/12/07 09:57:25;;;;;;;4.50;3.00;;;;;;;;;;20922124;28;20342;-69
2023/12/07 10:07:39;;;;;;;3.83;2.73;;;1.20;99.90;;;;;;20902845;28;20235;-69
2023/12/07 10:18:01;;;;;;;5.03;3.00;;;;;;;;;;20911555;28;20225;-69
2023/12/07 10:28:11;;;;;;;4.63;3.23;;;;;;;;;;20936069;28;20213;-69
2023/12/07 10:38:12;;;;;;;4.00;2.20;;;;;;;;;;20889622;28;20652;-69
2023/12/07 10:48:14;;;;;;;3.57;1.97;;;1.80;99.90;;;;;;20881885;28;20210;-69
2023/12/07 10:58:17;;;;;;;3.87;2.50;;;;;;;;;;20923365;28;20233;-69
2023/12/07 11:08:19;;;;;;;8.83;3.77;;;;;;;;;;20929210;28;20216;-69
2023/12/07 11:18:20;;;;;;;6.47;4.10;;;;;;;;;;20927965;28;20221;-69
2023/12/07 11:28:35;;;;;;;4.63;2.67;;;;;;;;;;20899628;28;20213;-70
2023/12/07 11:38:37;;;;;;;5.53;3.30;;;1.80;99.90;;;;;;20916350;28;20221;-71
2023/12/07 11:48:40;;;;;;;6.73;3.97;;;;;;;;;;20902344;28;20233;-70
2023/12/07 11:58:42;;;;;;;6.40;3.63;;;;;;;;;;20908235;28;20213;-71
2023/12/07 12:08:44;;;;;;;7.93;4.97;;;;;;;;;;20885481;28;20270;-70
2023/12/07 12:18:46;;;;;;;6.93;3.93;;;;;;;;;;20899192;28;20286;-70
2023/12/07 12:28:47;;;;;;;7.37;3.67;;;;;;;;;;20931960;28;20209;-71
2023/12/07 12:38:53;;;;;;;5.80;3.70;;;;;;;;;;20909179;28;20275;-70
2023/12/07 12:48:55;;;;;;;9.00;4.60;;;;;;;;;;20931909;28;20275;-71
2023/12/07 12:58:57;;;;;;;5.20;3.50;;;;;;;;;;20934433;28;20221;-71
2023/12/07 13:08:59;;;;;;;9.90;4.50;;;;;;;;;;20922828;28;20561;-71
2023/12/07 13:19:01;;;;;;;9.60;4.50;;;;;;;;;;20920202;28;20218;-71
2023/12/07 13:29:03;;;;;;;6.17;4.27;;;;;;;;;;20915910;28;20213;-71
2023/12/07 13:39:05;;;;;;;9.10;4.50;;;;;;;;;;20927322;28;20221;-70
2023/12/07 13:49:06;;;;;;;6.67;4.30;;;;;;;;;;20916612;28;20731;-71
2023/12/07 13:59:10;;;;;;;5.70;3.73;;;;;;;;;;20921367;28;20290;-70
2023/12/07 14:09:13;;;;;;;13.07;6.37;;;;;;;;;;20914508;28;20318;-71
2023/12/07 14:19:14;;;;;;;7.97;5.23;;;;;;;;;;20909109;28;20221;-71
2023/12/07 14:29:17;;;;;;;9.30;5.47;;;;;;;;;;20900747;28;20217;-71
2023/12/07 14:39:20;;;;;;;10.47;4.93;;;;;;;;;;20903805;28;20230;-71
2023/12/07 14:49:23;;;;;;;9.23;5.80;;;;;;;;;;20912669;28;20217;-71
2023/12/07 14:59:25;;;;;;;10.17;5.37;;;;;;;;;;20899878;28;20836;-71
2023/12/07 15:09:26;;;;;;;17.57;7.73;;;;;;;;;;20908583;28;20209;-71
2023/12/07 15:19:28;;;;;;;7.57;5.03;;;;;;;;;;20895171;28;20221;-71
2023/12/07 15:29:30;;;;;;;9.43;5.60;;;;;;;;;;20888711;28;20205;-71
2023/12/07 15:39:32;;;;;;;7.33;4.77;;;;;;;;;;20900406;28;20222;-69
2023/12/07 15:49:34;;;;;;;7.57;5.90;;;;;;;;;;20926687;28;20217;-70
2023/12/07 15:59:36;;;;;;;10.30;6.70;;;;;;;;;;20898008;28;20221;-70
2023/12/07 16:09:38;;;;;;;10.23;6.77;;;;;;;;;;20903989;28;20205;-70
2023/12/07 16:19:40;;;;;;;13.77;6.50;;;;;;;;;;20911122;28;20752;-70
2023/12/07 16:29:42;;;;;;;11.33;5.77;;;;;;;;;;20906655;28;20214;-70
2023/12/07 16:39:44;;;;;;;7.33;4.93;;;2.00;99.90;;;;;;20919196;28;20225;-70
2023/12/07 16:49:46;;;;;;;11.37;5.57;;;;;;;;;;20915707;28;20676;-70
2023/12/07 16:59:48;;;;;;;9.23;5.83;;;;;;;;;;20908383;28;20271;-70
2023/12/07 17:09:51;;;;;;;8.57;5.13;;;;;;;;;;20937020;28;20213;-70
2023/12/07 17:19:53;;;;;;;9.10;5.13;;;;;;;;;;20914780;28;20221;-70
2023/12/07 17:30:03;;;;;;;10.00;5.20;;;;;;;;;;20895866;28;20209;-70
2023/12/07 17:40:06;;;;;;;7.70;4.67;;;;;;;;;;20499394;28;20255;-68
2023/12/07 17:50:08;;;;;;;7.00;4.37;;;;;;;;;;20500216;28;20689;-68
2023/12/07 18:00:10;;;;;;;6.57;3.87;;;1.60;99.90;;;;;;20512120;28;20577;-67
2023/12/07 18:10:14;;;;;;;6.60;3.63;;;;;;;;;;20584359;23;20309;-86
2023/12/07 18:20:15;;;;;;;7.47;4.07;;;;;;;;;;20468689;28;20293;-87
2023/12/07 18:41:04;;;;;;;6.37;3.73;;;;;;;;;;20633575;28;20255;-86
2023/12/07 18:51:06;;;;;;;6.30;3.53;;;;;;;;;;20636522;28;20247;-87
2023/12/07 19:11:54;;;;;;;4.73;3.03;;;;;;;;;;20652883;28;20235;-86
2023/12/07 19:21:56;;;;;;;3.97;3.13;;;;;;;;;;20619759;28;20249;-85
2023/12/07 19:31:58;;;;;;;6.80;3.90;;;;;;;;;;20442920;28;20209;-87
2023/12/07 19:42:00;;;;;;;4.40;3.00;;;;;;;;;;20495196;28;20233;-86
2023/12/07 20:03:26;;;;;;;6.00;3.03;;;;;;;;;;20486762;28;20781;-86
2023/12/07 20:25:19;;;;;;;3.90;3.10;;;;;;;;;;20524883;28;20303;-87
2023/12/07 20:47:16;;;;;;;4.53;2.90;;;;;;;;;;20596158;28;20229;-87
2023/12/07 20:57:18;;;;;;;3.77;2.40;;;;;;;;;;20571865;28;20267;-86
2023/12/07 21:07:20;;;;;;;8.30;4.23;;;;;;;;;;20559591;28;20772;-87
2023/12/07 21:17:22;;;;;;;4.80;3.10;;;;;;;;;;20573545;28;20942;-86
2023/12/07 21:38:47;;;;;;;2.77;1.77;;;;;;;;;;20502133;28;20636;-85
2023/12/07 21:48:49;;;;;;;4.17;3.07;;;;;;;;;;20516533;28;20687;-84
2023/12/07 21:58:55;;;;;;;4.97;3.50;;;;;;;;;;20496564;28;20221;-85
2023/12/07 22:08:57;;;;;;;3.87;2.97;;;;;;;;;;20478863;28;20220;-85
2023/12/07 22:18:59;;;;;;;3.20;2.50;;;;;;;;;;20505709;28;20229;-84
2023/12/07 22:29:00;;;;;;;3.27;2.43;;;;;;;;;;20616433;28;20219;-86
2023/12/07 22:39:02;;;;;;;2.63;2.03;;;;;;;;;;20640478;28;20215;-87
2023/12/07 22:49:09;;;;;;;3.33;2.30;;;;;;;;;;20607554;28;20220;-86
2023/12/07 22:59:18;;;;;;;3.63;2.30;;;;;;;;;;20633148;28;20211;-86
2023/12/07 23:09:19;;;;;;;3.17;1.83;;;;;;;;;;20628678;28;20219;-84
2023/12/07 23:19:21;;;;;;;3.43;2.17;;;;;;;;;;20624031;28;20227;-85
2023/12/07 23:29:23;;;;;;;3.97;2.67;;;;;;;;;;20627128;28;20232;-84
2023/12/07 23:39:27;;;;;;;6.83;4.60;;;;;;;;;;20638799;28;20283;-86
2023/12/07 23:49:29;;;;;;;6.00;4.07;;;;;;;;;;20626457;28;20622;-85
2023/12/07 23:59:31;;;;;;;3.20;2.50;;;;;;;;;;20658843;28;20250;-88
